Time;durP1;ratioP1;P1;durP2;ratioP2;P2;SDS_P1;SDS_P2;PMS_P1;PMS_P2;Temp;Humidity;BMP_temperature;BMP_pressure;BME280_temperature;BME280_humidity;BME280_pressure;Samples;Min_cycle;Max_cycle;Signal;HPM_P1;HPM_P2
2022/01/02 00:02:15;;;;;;;8.88;7.97;;;11.40;99.90;;;;;;5092608;28;20389;-81
2022/01/02 00:04:48;;;;;;;11.52;8.60;;;11.40;99.90;;;;;;5093321;28;20389;-81
2022/01/02 00:07:16;;;;;;;9.55;7.90;;;11.30;99.90;;;;;;5092397;28;20055;-81
2022/01/02 00:09:46;;;;;;;9.85;7.80;;;11.40;99.90;;;;;;5092651;28;20047;-82
2022/01/02 00:12:14;;;;;;;9.98;7.80;;;11.40;99.90;;;;;;5092576;28;20058;-79
2022/01/02 00:14:46;;;;;;;10.93;8.63;;;11.30;99.90;;;;;;5093093;28;20044;-80
2022/01/02 00:17:14;;;;;;;9.95;7.90;;;11.30;99.90;;;;;;5092646;28;20412;-80
2022/01/02 00:19:46;;;;;;;11.73;8.23;;;11.30;99.90;;;;;;5093011;28;20043;-80
2022/01/02 00:22:15;;;;;;;10.20;8.35;;;11.30;99.90;;;;;;5092707;28;20052;-79
2022/01/02 00:24:43;;;;;;;11.95;8.52;;;11.30;99.90;;;;;;5092995;28;20146;-78
2022/01/02 00:27:10;;;;;;;10.07;8.82;;;11.20;99.90;;;;;;5092515;28;20420;-79
2022/01/02 00:29:41;;;;;;;12.52;8.68;;;11.20;99.90;;;;;;5092714;28;20043;-78
2022/01/02 00:32:08;;;;;;;10.65;8.27;;;11.20;99.90;;;;;;5092465;28;20550;-76
2022/01/02 00:34:38;;;;;;;10.40;8.77;;;11.20;99.90;;;;;;5092853;28;20043;-76
2022/01/02 00:37:05;;;;;;;;;;;11.20;99.90;;;;;;5092843;28;20123;-76
2022/01/02 00:39:31;;;;;;;9.75;7.93;;;11.10;99.90;;;;;;5092829;28;19920;-76
2022/01/02 00:42:05;;;;;;;8.63;7.78;;;11.10;99.90;;;;;;5092370;28;20048;-75
2022/01/02 00:44:48;;;;;;;9.77;8.57;;;11.10;99.90;;;;;;5092930;28;20052;-76
2022/01/02 00:47:26;;;;;;;9.95;8.13;;;11.10;99.90;;;;;;5092337;28;20048;-75
2022/01/02 00:50:01;;;;;;;10.35;7.30;;;11.10;99.90;;;;;;5092639;28;20044;-75
2022/01/02 00:52:28;;;;;;;8.63;7.72;;;11.10;99.90;;;;;;5092732;28;20044;-75
2022/01/02 00:54:56;;;;;;;10.07;8.05;;;11.10;99.90;;;;;;5092763;28;20048;-75
2022/01/02 00:57:35;;;;;;;8.57;7.53;;;11.10;99.90;;;;;;5092788;28;20052;-75
2022/01/02 01:00:04;;;;;;;9.02;8.05;;;11.10;99.90;;;;;;5092228;28;20059;-74
2022/01/02 01:02:45;;;;;;;8.30;7.28;;;11.10;99.90;;;;;;5092674;28;20093;-74
2022/01/02 01:05:19;;;;;;;9.35;7.93;;;11.10;99.90;;;;;;5092298;28;20087;-74
2022/01/02 01:07:48;;;;;;;9.20;7.30;;;11.10;99.90;;;;;;5092327;28;20071;-74
2022/01/02 01:10:15;;;;;;;8.82;7.78;;;11.10;99.90;;;;;;5092026;28;20048;-74
2022/01/02 01:12:41;;;;;;;10.35;7.82;;;11.10;99.90;;;;;;5092652;28;20056;-74
2022/01/02 01:15:08;;;;;;;8.45;7.40;;;11.10;99.90;;;;;;5092038;28;20040;-74
2022/01/02 01:17:38;;;;;;;9.23;8.18;;;11.10;99.90;;;;;;5092488;28;20055;-74
2022/01/02 01:20:07;;;;;;;12.02;8.18;;;11.10;99.90;;;;;;5092189;28;20036;-74
2022/01/02 01:22:33;;;;;;;11.80;8.60;;;11.10;99.90;;;;;;5096176;28;20048;-74
2022/01/02 01:24:59;;;;;;;10.68;8.43;;;11.10;99.90;;;;;;5096208;28;20101;-74
2022/01/02 01:27:25;;;;;;;11.57;8.43;;;11.10;99.90;;;;;;5095781;28;20055;-75
2022/01/02 01:29:51;;;;;;;10.43;7.78;;;11.10;99.90;;;;;;5096169;28;20050;-74
2022/01/02 01:32:16;;;;;;;10.73;8.50;;;11.10;99.90;;;;;;5095658;28;20127;-74
2022/01/02 01:34:42;;;;;;;10.63;8.45;;;11.10;99.90;;;;;;5096067;28;20119;-75
2022/01/02 01:37:08;;;;;;;10.52;8.38;;;11.10;99.90;;;;;;5095597;28;20477;-74
2022/01/02 01:39:33;;;;;;;10.55;8.05;;;11.10;99.90;;;;;;5095951;28;20478;-74
2022/01/02 01:42:07;;;;;;;9.93;8.48;;;11.10;99.90;;;;;;5096016;28;20087;-74
2022/01/02 01:47:26;;;;;;;12.90;8.85;;;11.10;99.90;;;;;;5086677;28;20048;-74
2022/01/02 01:49:51;;;;;;;12.27;8.85;;;11.10;99.90;;;;;;5095990;28;20051;-74
2022/01/02 01:52:17;;;;;;;12.15;8.52;;;11.00;99.90;;;;;;5095290;28;20380;-74
2022/01/02 01:54:43;;;;;;;12.85;8.48;;;11.00;99.90;;;;;;5095640;28;20086;-74
2022/01/02 01:57:08;;;;;;;10.65;8.68;;;11.00;99.90;;;;;;5095186;28;20047;-74
2022/01/02 01:59:34;;;;;;;14.20;9.25;;;11.00;99.90;;;;;;5095576;28;20044;-74
2022/01/02 02:02:01;;;;;;;12.23;9.02;;;11.00;99.90;;;;;;5095567;28;20544;-74
2022/01/02 02:04:28;;;;;;;12.45;9.48;;;11.00;99.90;;;;;;5095041;28;20158;-74
2022/01/02 02:06:56;;;;;;;12.32;9.80;;;11.00;99.90;;;;;;5095126;28;20060;-75
2022/01/02 02:09:24;;;;;;;11.95;8.95;;;11.00;99.90;;;;;;5094617;28;20488;-75
2022/01/02 02:11:51;;;;;;;15.75;9.27;;;11.00;99.90;;;;;;5095361;28;20051;-75
2022/01/02 02:14:16;;;;;;;11.07;8.95;;;11.00;99.90;;;;;;5094840;28;20051;-74
2022/01/02 02:16:42;;;;;;;11.45;9.30;;;11.00;99.90;;;;;;5095247;28;20036;-74
2022/01/02 02:19:08;;;;;;;12.52;9.65;;;11.00;99.90;;;;;;5095158;28;20116;-73
2022/01/02 02:21:36;;;;;;;11.52;9.05;;;11.00;99.90;;;;;;5095174;28;20058;-75
2022/01/02 02:24:04;;;;;;;12.82;8.65;;;11.00;99.90;;;;;;5095108;28;20044;-75
2022/01/02 02:26:31;;;;;;;10.40;9.25;;;11.00;99.90;;;;;;5094587;28;20048;-74
2022/01/02 02:28:57;;;;;;;11.77;9.10;;;11.00;99.90;;;;;;5095119;28;20044;-74
2022/01/02 02:31:23;;;;;;;11.45;9.63;;;11.00;99.90;;;;;;5094334;28;20465;-74
2022/01/02 02:33:48;;;;;;;9.75;8.75;;;11.00;99.90;;;;;;5094949;28;20067;-74
2022/01/02 02:36:14;;;;;;;12.02;9.45;;;11.00;99.90;;;;;;5094480;28;20051;-75
2022/01/02 02:38:40;;;;;;;12.77;8.73;;;11.00;99.90;;;;;;5094888;28;20367;-75
2022/01/02 02:41:06;;;;;;;11.07;9.10;;;10.90;99.90;;;;;;5094728;28;20139;-75
2022/01/02 02:43:44;;;;;;;11.25;9.10;;;10.90;99.90;;;;;;5094291;28;20068;-75
2022/01/02 02:49:03;;;;;;;10.68;9.18;;;10.90;99.90;;;;;;5094728;28;20439;-75
2022/01/02 02:51:47;;;;;;;12.85;9.07;;;10.80;99.90;;;;;;5094215;28;20452;-75
2022/01/02 02:54:32;;;;;;;11.15;9.25;;;10.90;99.90;;;;;;5094330;28;20055;-75
2022/01/02 02:56:59;;;;;;;10.27;9.00;;;10.90;99.90;;;;;;5094643;28;20141;-74
2022/01/02 02:59:28;;;;;;;10.18;8.55;;;10.90;99.90;;;;;;5094037;28;20044;-74
2022/01/02 03:01:54;;;;;;;10.82;8.43;;;10.90;99.90;;;;;;5094375;28;20048;-75
2022/01/02 03:04:20;;;;;;;10.30;9.20;;;10.90;99.90;;;;;;5093575;28;20504;-74
2022/01/02 03:06:46;;;;;;;12.63;9.20;;;10.80;99.90;;;;;;5094270;28;20052;-75
2022/01/02 03:09:13;;;;;;;11.02;8.45;;;10.90;99.90;;;;;;5092972;28;20047;-75
2022/01/02 03:11:41;;;;;;;11.38;8.70;;;10.80;99.90;;;;;;5094054;28;20055;-75
2022/01/02 03:14:12;;;;;;;13.13;8.68;;;10.90;99.90;;;;;;5094097;28;20048;-74
2022/01/02 03:16:39;;;;;;;12.15;8.77;;;10.90;99.90;;;;;;5093660;28;20044;-75
2022/01/02 03:19:05;;;;;;;12.43;8.05;;;10.80;99.90;;;;;;5094031;28;20040;-75
2022/01/02 03:21:31;;;;;;;12.85;9.30;;;10.90;99.90;;;;;;5093574;28;20131;-75
2022/01/02 03:23:57;;;;;;;11.27;8.88;;;10.90;99.90;;;;;;5093895;28;20128;-75
2022/01/02 03:26:23;;;;;;;10.73;8.13;;;10.90;99.90;;;;;;5093466;28;20044;-74
2022/01/02 03:28:49;;;;;;;13.65;9.15;;;10.90;99.90;;;;;;5094077;28;20095;-75
2022/01/02 03:31:15;;;;;;;13.13;8.80;;;10.90;99.90;;;;;;5093960;28;20065;-75
2022/01/02 03:33:42;;;;;;;11.65;8.65;;;10.90;99.90;;;;;;5093310;28;20047;-75
2022/01/02 03:36:08;;;;;;;13.60;8.60;;;10.90;99.90;;;;;;5093819;28;20127;-75
2022/01/02 03:38:34;;;;;;;14.38;8.90;;;10.90;99.90;;;;;;5093296;28;20126;-75
2022/01/02 03:40:59;;;;;;;12.77;9.15;;;10.90;99.90;;;;;;5093705;28;20040;-76
2022/01/02 03:43:25;;;;;;;10.82;8.52;;;11.00;99.90;;;;;;5092663;28;20044;-75
2022/01/02 03:45:52;;;;;;;13.20;8.50;;;10.90;99.90;;;;;;5093622;28;20052;-75
2022/01/02 03:48:18;;;;;;;12.93;8.77;;;10.90;99.90;;;;;;5093876;28;20087;-75
2022/01/02 03:50:44;;;;;;;12.73;8.88;;;10.90;99.90;;;;;;5093493;28;20488;-75
2022/01/02 03:53:09;;;;;;;12.90;8.73;;;10.90;99.90;;;;;;5093183;28;20040;-75
2022/01/02 03:55:36;;;;;;;13.45;8.50;;;10.90;99.90;;;;;;5092981;28;20073;-75
2022/01/02 03:58:02;;;;;;;12.48;8.70;;;11.00;99.90;;;;;;5093466;28;20101;-75
2022/01/02 04:00:28;;;;;;;10.80;8.27;;;11.00;99.90;;;;;;5092888;28;20048;-74
2022/01/02 04:02:54;;;;;;;12.70;8.52;;;11.00;99.90;;;;;;5092984;28;20044;-75
2022/01/02 04:05:20;;;;;;;15.13;9.73;;;11.00;99.90;;;;;;5093050;28;20051;-74
2022/01/02 04:07:46;;;;;;;12.65;8.13;;;11.00;99.90;;;;;;5093257;28;20051;-75
2022/01/02 04:10:14;;;;;;;12.88;8.45;;;11.00;99.90;;;;;;5093119;28;20048;-75
2022/01/02 04:12:40;;;;;;;10.55;8.43;;;11.00;99.90;;;;;;5092700;28;20040;-75
2022/01/02 04:15:08;;;;;;;10.43;7.63;;;11.00;99.90;;;;;;5093215;28;20501;-74
2022/01/02 04:17:35;;;;;;;12.00;8.15;;;11.00;99.90;;;;;;5092704;28;20157;-75
2022/01/02 04:20:02;;;;;;;10.95;8.20;;;11.00;99.90;;;;;;5093324;28;20046;-74
2022/01/02 04:22:28;;;;;;;14.80;8.00;;;11.00;99.90;;;;;;5092573;28;20040;-74
2022/01/02 04:24:54;;;;;;;12.15;8.50;;;11.10;99.90;;;;;;5093018;28;20434;-74
2022/01/02 04:27:21;;;;;;;13.80;8.40;;;11.00;99.90;;;;;;5092908;28;20048;-75
2022/01/02 04:29:46;;;;;;;10.48;7.72;;;11.10;99.90;;;;;;5092439;28;20051;-75
2022/01/02 04:32:13;;;;;;;12.82;8.07;;;11.10;99.90;;;;;;5092911;28;20393;-75
2022/01/02 04:34:39;;;;;;;10.13;7.60;;;11.10;99.90;;;;;;5092424;28;20044;-74
2022/01/02 04:37:05;;;;;;;12.00;7.72;;;11.10;99.90;;;;;;5092902;28;20126;-74
2022/01/02 04:39:32;;;;;;;13.23;7.43;;;11.20;99.90;;;;;;5092393;28;20080;-74
2022/01/02 04:41:58;;;;;;;13.63;7.22;;;11.20;99.90;;;;;;5092864;28;20055;-75
2022/01/02 04:44:24;;;;;;;11.13;8.02;;;11.20;99.90;;;;;;5092884;28;20048;-75
2022/01/02 04:46:50;;;;;;;10.20;7.07;;;11.20;99.90;;;;;;5092388;28;20370;-75
2022/01/02 04:49:16;;;;;;;13.98;7.43;;;11.20;99.90;;;;;;5092694;28;20177;-75
2022/01/02 04:51:42;;;;;;;10.77;7.10;;;11.20;99.90;;;;;;5091131;28;20519;-75
2022/01/02 04:54:07;;;;;;;12.65;7.43;;;11.30;99.90;;;;;;5092967;28;20044;-75
2022/01/02 04:56:33;;;;;;;14.60;7.10;;;11.30;99.90;;;;;;5094857;28;20048;-75
2022/01/02 04:58:59;;;;;;;14.00;6.68;;;11.30;99.90;;;;;;5096729;28;20040;-75
2022/01/02 05:01:24;;;;;;;16.50;7.32;;;11.30;99.90;;;;;;5096732;28;20129;-75
2022/01/02 05:03:50;;;;;;;13.88;7.15;;;11.30;99.90;;;;;;5096240;28;20051;-75
2022/01/02 05:06:16;;;;;;;12.13;6.97;;;11.30;99.90;;;;;;5096771;28;20052;-75
2022/01/02 05:08:45;;;;;;;14.93;7.70;;;11.30;99.90;;;;;;5096070;28;20485;-75
2022/01/02 05:11:13;;;;;;;10.70;6.97;;;11.30;99.90;;;;;;5096522;28;20216;-75
2022/01/02 05:13:39;;;;;;;12.07;7.38;;;11.30;99.90;;;;;;5094866;28;20048;-75
2022/01/02 05:16:05;;;;;;;9.50;6.68;;;11.30;99.90;;;;;;5096803;28;20117;-75
2022/01/02 05:18:30;;;;;;;11.05;6.72;;;11.40;99.90;;;;;;5095972;28;20469;-75
2022/01/02 05:20:56;;;;;;;10.25;6.72;;;11.40;99.90;;;;;;5096436;28;20379;-75
2022/01/02 05:23:22;;;;;;;11.55;6.15;;;11.40;99.90;;;;;;5096236;28;20496;-75
2022/01/02 05:25:48;;;;;;;11.38;6.72;;;11.50;99.90;;;;;;5095783;28;20043;-75
2022/01/02 05:28:14;;;;;;;11.57;6.03;;;11.50;99.90;;;;;;5096237;28;20036;-75
2022/01/02 05:30:40;;;;;;;12.10;6.38;;;11.50;99.90;;;;;;5095742;28;20499;-75
2022/01/02 05:33:07;;;;;;;15.98;6.82;;;11.50;99.90;;;;;;5096224;28;20069;-75
2022/01/02 05:35:32;;;;;;;10.93;6.13;;;11.60;99.90;;;;;;5095725;28;20119;-73
2022/01/02 05:37:59;;;;;;;10.20;5.45;;;11.60;99.90;;;;;;5096047;28;20517;-75
2022/01/02 05:40:31;;;;;;;12.35;6.05;;;11.70;99.90;;;;;;5096104;28;20071;-75
2022/01/02 05:43:00;;;;;;;11.35;6.20;;;11.70;99.90;;;;;;5095710;28;20059;-75
2022/01/02 05:45:26;;;;;;;12.27;5.75;;;11.70;99.90;;;;;;5096050;28;20039;-74
2022/01/02 05:47:52;;;;;;;8.70;5.07;;;11.70;99.90;;;;;;5095395;28;20136;-76
2022/01/02 05:50:18;;;;;;;9.60;4.90;;;11.80;99.90;;;;;;5095722;28;20126;-75
2022/01/02 05:52:44;;;;;;;9.13;4.57;;;11.80;99.90;;;;;;5095303;28;20127;-75
2022/01/02 05:55:10;;;;;;;12.65;4.88;;;11.80;99.90;;;;;;5095810;28;20143;-75
2022/01/02 05:57:35;;;;;;;9.50;5.30;;;11.90;99.90;;;;;;5095220;28;20374;-74
2022/01/02 06:00:03;;;;;;;9.35;4.68;;;11.90;99.90;;;;;;5095568;28;20070;-75
2022/01/02 06:02:30;;;;;;;8.90;4.90;;;11.90;99.90;;;;;;5095749;28;20048;-76
2022/01/02 06:04:56;;;;;;;9.52;4.68;;;11.90;99.90;;;;;;5095087;28;20044;-76
2022/01/02 06:07:22;;;;;;;10.82;4.80;;;11.90;99.90;;;;;;5095175;28;20469;-76
2022/01/02 06:09:47;;;;;;;9.38;5.30;;;12.00;99.90;;;;;;5094934;28;20389;-75
2022/01/02 06:12:13;;;;;;;8.43;4.97;;;12.00;99.90;;;;;;5095690;28;20473;-75
2022/01/02 06:14:39;;;;;;;8.43;5.05;;;11.90;99.90;;;;;;5095027;28;20040;-75
2022/01/02 06:17:04;;;;;;;8.75;5.57;;;11.90;99.90;;;;;;5094322;28;20047;-75
2022/01/02 06:19:30;;;;;;;13.70;5.82;;;11.90;99.90;;;;;;5095313;28;20048;-75
2022/01/02 06:21:56;;;;;;;12.32;5.30;;;11.90;99.90;;;;;;5094771;28;20036;-76
2022/01/02 06:24:21;;;;;;;9.63;5.30;;;11.80;99.90;;;;;;5095427;28;20052;-75
2022/01/02 06:26:47;;;;;;;9.88;5.80;;;11.80;99.90;;;;;;5094402;28;20132;-75
2022/01/02 06:29:13;;;;;;;10.90;5.45;;;11.80;99.90;;;;;;5095017;28;20036;-76
2022/01/02 06:31:39;;;;;;;11.98;5.78;;;11.80;99.90;;;;;;5094978;28;20087;-72
2022/01/02 06:34:04;;;;;;;11.25;5.25;;;11.70;99.90;;;;;;5094573;28;20075;-75
2022/01/02 06:36:30;;;;;;;12.50;5.75;;;11.80;99.90;;;;;;5095031;28;20097;-76
2022/01/02 06:38:56;;;;;;;9.52;5.90;;;11.70;99.90;;;;;;5094377;28;20070;-75
2022/01/02 06:41:21;;;;;;;11.90;5.80;;;11.70;99.90;;;;;;5094751;28;20056;-76
2022/01/02 06:43:52;;;;;;;10.77;6.22;;;11.70;99.90;;;;;;5094451;28;20052;-75
2022/01/02 06:46:18;;;;;;;11.98;6.40;;;11.70;99.90;;;;;;5094775;28;20478;-76
2022/01/02 06:48:45;;;;;;;9.93;5.97;;;11.70;99.90;;;;;;5094194;28;20047;-75
2022/01/02 06:51:10;;;;;;;12.52;6.88;;;11.70;99.90;;;;;;5094575;28;20058;-75
2022/01/02 06:53:36;;;;;;;10.38;5.55;;;11.70;99.90;;;;;;5094216;28;20123;-75
2022/01/02 06:56:03;;;;;;;11.07;6.80;;;11.60;99.90;;;;;;5094048;28;20048;-75
2022/01/02 06:58:28;;;;;;;10.88;6.28;;;11.60;99.90;;;;;;5094450;28;20619;-75
2022/01/02 07:00:56;;;;;;;10.10;6.03;;;11.60;99.90;;;;;;5094081;28;20083;-75
2022/01/02 07:03:22;;;;;;;9.10;6.32;;;11.60;99.90;;;;;;5094376;28;20079;-75
2022/01/02 07:05:48;;;;;;;9.05;6.00;;;11.60;99.90;;;;;;5093581;28;20060;-75
2022/01/02 07:08:14;;;;;;;10.55;6.53;;;11.60;99.90;;;;;;5094715;28;20059;-75
2022/01/02 07:10:40;;;;;;;8.95;6.13;;;11.60;99.90;;;;;;5094224;28;20040;-76
2022/01/02 07:13:06;;;;;;;8.85;6.03;;;11.60;99.90;;;;;;5093759;28;20072;-74
2022/01/02 07:15:31;;;;;;;11.68;6.05;;;11.60;99.90;;;;;;5094176;28;20558;-75
2022/01/02 07:17:58;;;;;;;12.02;6.13;;;11.60;99.90;;;;;;5092738;28;20549;-75
2022/01/02 07:20:24;;;;;;;10.63;6.35;;;11.60;99.90;;;;;;5094083;28;20037;-75
2022/01/02 07:22:49;;;;;;;9.68;6.10;;;11.60;99.90;;;;;;5092402;28;20043;-75
2022/01/02 07:25:15;;;;;;;10.35;5.80;;;11.60;99.90;;;;;;5093917;28;20051;-74
2022/01/02 07:27:41;;;;;;;8.55;6.13;;;11.60;99.90;;;;;;5093931;28;20131;-74
2022/01/02 07:30:08;;;;;;;8.65;5.47;;;11.60;99.90;;;;;;5093371;28;20040;-75
2022/01/02 07:32:33;;;;;;;10.43;6.45;;;11.60;99.90;;;;;;5093709;28;20103;-74
2022/01/02 07:34:59;;;;;;;12.25;6.30;;;11.60;99.90;;;;;;5093387;28;20051;-75
2022/01/02 07:37:25;;;;;;;9.30;6.22;;;11.60;99.90;;;;;;5093455;28;20091;-75
2022/01/02 07:39:51;;;;;;;7.20;5.25;;;11.60;99.90;;;;;;5093451;28;20051;-76
2022/01/02 07:42:17;;;;;;;10.18;5.47;;;11.70;99.90;;;;;;5093703;28;20036;-75
2022/01/02 07:44:42;;;;;;;9.93;5.85;;;11.60;99.90;;;;;;5093618;28;20098;-76
2022/01/02 07:47:08;;;;;;;9.90;5.60;;;11.70;99.90;;;;;;5093242;28;20142;-75
2022/01/02 07:49:34;;;;;;;8.32;6.05;;;11.60;99.90;;;;;;5092430;28;20127;-76
2022/01/02 07:52:00;;;;;;;7.82;5.55;;;11.70;99.90;;;;;;5093168;28;20044;-75
2022/01/02 07:54:26;;;;;;;7.43;5.63;;;11.70;99.90;;;;;;5093653;28;20378;-74
2022/01/02 07:56:52;;;;;;;10.43;5.78;;;11.60;99.90;;;;;;5092957;28;20044;-76
2022/01/02 07:59:18;;;;;;;8.30;5.60;;;11.70;99.90;;;;;;5093349;28;20036;-76
2022/01/02 08:01:43;;;;;;;7.35;5.70;;;11.70;99.90;;;;;;5093342;28;20040;-75
2022/01/02 08:04:09;;;;;;;9.45;5.68;;;11.70;99.90;;;;;;5092905;28;20444;-75
2022/01/02 08:06:35;;;;;;;8.00;5.10;;;11.60;99.90;;;;;;5093331;28;20135;-76
2022/01/02 08:09:01;;;;;;;8.05;5.40;;;11.70;99.90;;;;;;5092842;28;20044;-75
2022/01/02 08:11:27;;;;;;;9.13;5.50;;;11.70;99.90;;;;;;5093258;28;20098;-76
2022/01/02 08:13:53;;;;;;;9.38;5.72;;;11.70;99.90;;;;;;5092720;28;20047;-75
2022/01/02 08:16:18;;;;;;;8.05;5.30;;;11.70;99.90;;;;;;5093142;28;20131;-75
2022/01/02 08:18:44;;;;;;;10.23;5.10;;;11.70;99.90;;;;;;5093076;28;20067;-75
2022/01/02 08:21:10;;;;;;;8.55;5.00;;;11.60;99.90;;;;;;5092646;28;20066;-75
2022/01/02 08:23:36;;;;;;;9.98;4.97;;;11.60;99.90;;;;;;5093076;28;20048;-75
2022/01/02 08:26:02;;;;;;;9.05;5.10;;;11.70;99.90;;;;;;5092340;28;20400;-75
2022/01/02 08:28:28;;;;;;;8.60;5.13;;;11.70;99.90;;;;;;5093092;28;20039;-75
2022/01/02 08:30:54;;;;;;;9.40;5.05;;;11.70;99.90;;;;;;5092303;28;20441;-75
2022/01/02 08:33:19;;;;;;;10.13;5.18;;;11.70;99.90;;;;;;5093170;28;20044;-75
2022/01/02 08:35:45;;;;;;;6.97;5.28;;;11.70;99.90;;;;;;5092885;28;20040;-75
2022/01/02 08:38:12;;;;;;;8.77;5.38;;;11.70;99.90;;;;;;5092408;28;20105;-75
2022/01/02 08:40:40;;;;;;;7.88;5.78;;;11.70;99.90;;;;;;5092863;28;20036;-76
2022/01/02 08:43:07;;;;;;;8.18;4.43;;;11.70;99.90;;;;;;5092421;28;20446;-76
2022/01/02 08:45:34;;;;;;;7.22;4.50;;;11.70;99.90;;;;;;5092844;28;20084;-77
2022/01/02 08:47:59;;;;;;;7.45;4.40;;;11.70;99.90;;;;;;5092441;28;20126;-75
2022/01/02 08:50:25;;;;;;;9.63;5.00;;;11.70;99.90;;;;;;5092671;28;20131;-76
2022/01/02 08:52:51;;;;;;;6.70;4.55;;;11.70;99.90;;;;;;5093016;28;20055;-75
2022/01/02 08:55:17;;;;;;;7.47;5.00;;;11.70;99.90;;;;;;5092304;28;20134;-75
2022/01/02 08:57:42;;;;;;;8.88;5.00;;;11.60;99.90;;;;;;5092721;28;20137;-75
2022/01/02 09:00:09;;;;;;;8.32;5.10;;;11.60;99.90;;;;;;5092228;28;20393;-75
2022/01/02 09:02:35;;;;;;;8.85;5.28;;;11.50;99.90;;;;;;5091494;28;20051;-75
2022/01/02 09:05:01;;;;;;;8.90;5.80;;;11.50;99.90;;;;;;5092559;28;20050;-75
2022/01/02 09:07:27;;;;;;;10.05;5.70;;;11.50;99.90;;;;;;5092847;28;20473;-75
2022/01/02 09:09:52;;;;;;;9.45;5.15;;;11.40;99.90;;;;;;5092556;28;20048;-75
2022/01/02 09:12:18;;;;;;;8.55;5.20;;;11.40;99.90;;;;;;5092098;28;20043;-74
2022/01/02 09:14:44;;;;;;;7.45;5.38;;;11.40;99.90;;;;;;5092632;28;20040;-76
2022/01/02 09:17:10;;;;;;;8.70;5.28;;;11.40;99.90;;;;;;5092093;28;20047;-75
2022/01/02 09:19:36;;;;;;;10.20;5.65;;;11.40;99.90;;;;;;5092463;28;20040;-75
2022/01/02 09:22:02;;;;;;;9.35;5.35;;;11.40;99.90;;;;;;5092105;28;20089;-74
2022/01/02 09:24:28;;;;;;;10.73;5.22;;;11.30;99.90;;;;;;5092419;28;20489;-74
2022/01/02 09:26:56;;;;;;;8.40;5.00;;;11.30;99.90;;;;;;5092552;28;20048;-75
2022/01/02 09:29:22;;;;;;;10.38;5.70;;;11.40;99.90;;;;;;5091628;28;20687;-74
2022/01/02 09:31:48;;;;;;;7.53;4.78;;;11.40;99.90;;;;;;5092101;28;20516;-75
2022/01/02 09:34:14;;;;;;;9.35;5.30;;;11.50;99.90;;;;;;5091890;28;20048;-75
2022/01/02 09:36:40;;;;;;;6.72;5.07;;;11.50;99.90;;;;;;5092495;28;20051;-76
2022/01/02 09:39:05;;;;;;;9.80;5.65;;;11.50;99.90;;;;;;5091651;28;20484;-75
2022/01/02 09:41:32;;;;;;;9.77;5.18;;;11.50;99.90;;;;;;5093150;28;20055;-75
2022/01/02 09:43:58;;;;;;;8.95;5.53;;;11.60;99.90;;;;;;5095949;28;20503;-75
2022/01/02 09:46:25;;;;;;;7.43;5.10;;;11.60;99.90;;;;;;5095438;28;20048;-75
2022/01/02 09:48:53;;;;;;;7.85;5.22;;;11.60;99.90;;;;;;5095770;28;20093;-75
2022/01/02 09:51:24;;;;;;;7.15;4.90;;;11.50;99.90;;;;;;5095362;28;20059;-75
2022/01/02 09:53:50;;;;;;;;;;;11.60;99.90;;;;;;5096329;28;20142;-75
2022/01/02 09:56:16;;;;;;;5.97;4.88;;;11.50;99.90;;;;;;5095275;28;20392;-75
2022/01/02 09:58:43;;;;;;;8.20;5.05;;;11.60;99.90;;;;;;5095684;28;20213;-75
2022/01/02 10:01:16;;;;;;;7.20;5.22;;;11.60;99.90;;;;;;5095234;28;20063;-75
2022/01/02 10:03:44;;;;;;;9.48;5.50;;;11.70;99.90;;;;;;5095611;28;20166;-75
2022/01/02 10:06:10;;;;;;;8.63;5.10;;;11.70;99.90;;;;;;5094756;28;20090;-74
2022/01/02 10:08:37;;;;;;;7.80;5.00;;;11.70;99.90;;;;;;5095685;28;20044;-74
2022/01/02 10:11:22;;;;;;;6.78;5.20;;;11.80;99.90;;;;;;5095489;28;20043;-75
2022/01/02 10:13:57;;;;;;;8.65;5.40;;;11.80;99.90;;;;;;5095983;28;20109;-75
2022/01/02 10:16:22;;;;;;;8.60;5.55;;;11.80;99.90;;;;;;5094838;28;20048;-75
2022/01/02 10:18:50;;;;;;;8.82;4.95;;;11.80;99.90;;;;;;5095292;28;20046;-75
2022/01/02 10:21:30;;;;;;;8.73;4.75;;;11.90;99.90;;;;;;5094779;28;20097;-74
2022/01/02 10:24:16;;;;;;;7.68;5.15;;;12.00;99.90;;;;;;5095150;28;20485;-74
2022/01/02 10:27:09;;;;;;;7.45;5.22;;;12.00;99.90;;;;;;5095298;28;20055;-74
2022/01/02 10:29:41;;;;;;;6.30;5.50;;;12.20;99.90;;;;;;5095272;28;20089;-75
2022/01/02 10:32:35;;;;;;;8.52;5.00;;;12.30;99.90;;;;;;5094942;28;20048;-75
2022/01/02 10:35:07;;;;;;;5.30;4.80;;;12.40;99.90;;;;;;5094897;28;20495;-75
2022/01/02 10:37:32;;;;;;;6.28;4.70;;;12.40;99.90;;;;;;5094487;28;20052;-75
2022/01/02 10:39:58;;;;;;;6.38;4.85;;;12.50;99.90;;;;;;5095295;28;20362;-75
2022/01/02 10:42:24;;;;;;;7.55;5.22;;;12.60;99.90;;;;;;5094429;28;20047;-75
2022/01/02 10:44:50;;;;;;;6.65;5.50;;;12.70;99.90;;;;;;5094872;28;20048;-75
2022/01/02 10:47:16;;;;;;;6.03;5.35;;;12.80;99.90;;;;;;5094303;28;20366;-74
2022/01/02 10:50:03;;;;;;;7.22;5.82;;;12.90;99.90;;;;;;5094620;28;20151;-75
2022/01/02 10:52:37;;;;;;;8.40;5.47;;;12.90;99.90;;;;;;5094108;28;20043;-75
2022/01/02 10:55:24;;;;;;;7.13;5.50;;;12.90;99.90;;;;;;5094584;28;20097;-75
2022/01/02 10:57:55;;;;;;;5.80;5.20;;;12.80;99.90;;;;;;5094580;28;20040;-74
2022/01/02 11:00:22;;;;;;;;;;;12.70;99.90;;;;;;5094533;28;20131;-75
2022/01/02 11:02:48;;;;;;;7.38;5.40;;;12.60;99.90;;;;;;5094404;28;19920;-75
2022/01/02 11:05:17;;;;;;;7.38;5.50;;;12.60;99.90;;;;;;5093982;28;20036;-71
2022/01/02 11:07:47;;;;;;;9.57;5.43;;;12.60;99.90;;;;;;5094473;28;20139;-75
2022/01/02 11:10:18;;;;;;;8.55;5.35;;;12.60;99.90;;;;;;5094182;28;20477;-74
2022/01/02 11:12:45;;;;;;;9.15;5.85;;;12.60;99.90;;;;;;5094514;28;20136;-75
2022/01/02 11:15:13;;;;;;;8.43;5.68;;;12.50;99.90;;;;;;5094517;28;20047;-75
2022/01/02 11:17:39;;;;;;;8.38;5.80;;;12.50;99.90;;;;;;5093711;28;20117;-75
2022/01/02 11:20:10;;;;;;;7.68;6.00;;;12.50;99.90;;;;;;5094128;28;20469;-75
2022/01/02 11:23:00;;;;;;;6.75;5.75;;;12.50;99.90;;;;;;5093669;28;20354;-74
2022/01/02 11:25:43;;;;;;;6.88;6.10;;;12.50;99.90;;;;;;5093625;28;20051;-74
2022/01/02 11:28:41;;;;;;;8.23;6.20;;;12.50;99.90;;;;;;5094009;28;20079;-75
2022/01/02 11:31:09;;;;;;;9.05;5.95;;;12.40;99.90;;;;;;5094120;28;20040;-75
2022/01/02 11:33:42;;;;;;;8.80;6.38;;;12.40;99.90;;;;;;5093447;28;20051;-75
2022/01/02 11:36:33;;;;;;;9.10;6.43;;;12.30;99.90;;;;;;5093921;28;20040;-75
2022/01/02 11:39:08;;;;;;;7.80;6.07;;;12.30;99.90;;;;;;5094084;28;20055;-75
2022/01/02 11:41:41;;;;;;;9.65;6.28;;;12.30;99.90;;;;;;5093594;28;20542;-75
2022/01/02 11:44:14;;;;;;;8.65;6.38;;;12.30;99.90;;;;;;5093870;28;20044;-75
2022/01/02 11:46:45;;;;;;;8.90;6.00;;;12.30;99.90;;;;;;5093307;28;20052;-75
2022/01/02 11:49:14;;;;;;;8.25;6.32;;;12.30;99.90;;;;;;5093733;28;20040;-75
2022/01/02 11:51:53;;;;;;;7.72;6.18;;;12.30;99.90;;;;;;5093054;28;20123;-75
2022/01/02 11:54:28;;;;;;;7.25;6.13;;;12.30;99.90;;;;;;5093494;28;20044;-75
2022/01/02 11:57:01;;;;;;;9.50;5.70;;;12.30;99.90;;;;;;5093417;28;20126;-75
2022/01/02 11:59:55;;;;;;;8.05;6.30;;;12.30;99.90;;;;;;5093008;28;20085;-75
2022/01/02 12:02:21;;;;;;;9.07;6.00;;;12.30;99.90;;;;;;5092376;28;20135;-71
2022/01/02 12:07:34;;;;;;;14.25;6.82;;;12.10;99.90;;;;;;5093084;28;20055;-74
2022/01/02 12:10:15;;;;;;;7.15;5.97;;;12.10;99.90;;;;;;5093140;28;20040;-75
2022/01/02 12:12:58;;;;;;;9.60;6.45;;;12.10;99.90;;;;;;5092760;28;20054;-75
2022/01/02 12:15:31;;;;;;;9.23;6.45;;;12.10;99.90;;;;;;5092882;28;20054;-75
2022/01/02 12:18:16;;;;;;;8.93;5.55;;;12.10;99.90;;;;;;5093184;28;20048;-75
2022/01/02 12:20:54;;;;;;;9.52;6.15;;;12.10;99.90;;;;;;5092731;28;20408;-75
2022/01/02 12:23:41;;;;;;;9.20;6.40;;;12.10;99.90;;;;;;5093042;28;20504;-76
2022/01/02 12:26:21;;;;;;;8.02;6.20;;;12.10;99.90;;;;;;5093100;28;20048;-75
2022/01/02 12:28:56;;;;;;;8.48;6.40;;;12.10;99.90;;;;;;5092573;28;20119;-76
2022/01/02 12:31:32;;;;;;;7.88;6.22;;;12.10;99.90;;;;;;5093059;28;20052;-75
2022/01/02 12:34:17;;;;;;;9.02;6.20;;;12.10;99.90;;;;;;5093159;28;20044;-75
2022/01/02 12:36:44;;;;;;;6.78;5.50;;;12.20;99.90;;;;;;5092528;28;20472;-75
2022/01/02 12:39:12;;;;;;;8.38;6.10;;;12.10;99.90;;;;;;5093091;28;20089;-76
2022/01/02 12:41:41;;;;;;;8.85;5.70;;;12.20;99.90;;;;;;5091409;28;20469;-76
2022/01/02 12:44:09;;;;;;;8.02;5.82;;;12.20;99.90;;;;;;5075061;28;20052;-75
2022/01/02 12:46:46;;;;;;;9.25;5.57;;;12.20;99.90;;;;;;5092442;28;20118;-75
2022/01/02 12:49:18;;;;;;;8.25;5.43;;;12.30;99.90;;;;;;5092984;28;20114;-76
2022/01/02 12:51:50;;;;;;;7.05;5.10;;;12.20;99.90;;;;;;5092325;28;20093;-76
2022/01/02 12:54:18;;;;;;;7.95;4.80;;;12.20;99.90;;;;;;5092769;28;20044;-75
2022/01/02 12:56:47;;;;;;;7.28;4.47;;;12.20;99.90;;;;;;5092373;28;20083;-75
2022/01/02 12:59:29;;;;;;;6.38;4.10;;;12.20;99.90;;;;;;5092702;28;20089;-76